sensor_id;sensor_type;location;lat;lon;timestamp;P1;durP1;ratioP1;P2;durP2;ratioP2
51985;SDS011;38002;53.296;6.600;2023-08-12T00:00:12;6.65;;;5.85;;
51985;SDS011;38002;53.296;6.600;2023-08-12T00:05:13;10.57;;;6.83;;
51985;SDS011;38002;53.296;6.600;2023-08-12T00:10:14;6.93;;;5.10;;
51985;SDS011;38002;53.296;6.600;2023-08-12T00:15:14;8.43;;;5.63;;
51985;SDS011;38002;53.296;6.600;2023-08-12T00:20:15;9.17;;;5.50;;
51985;SDS011;38002;53.296;6.600;2023-08-12T00:25:16;10.10;;;5.68;;
51985;SDS011;38002;53.296;6.600;2023-08-12T00:30:16;11.73;;;4.80;;
51985;SDS011;38002;53.296;6.600;2023-08-12T00:35:17;6.90;;;4.87;;
51985;SDS011;38002;53.296;6.600;2023-08-12T00:40:17;7.63;;;4.00;;
51985;SDS011;38002;53.296;6.600;2023-08-12T00:45:18;7.83;;;4.27;;
51985;SDS011;38002;53.296;6.600;2023-08-12T00:50:18;5.57;;;3.77;;
51985;SDS011;38002;53.296;6.600;2023-08-12T00:55:20;4.45;;;2.85;;
51985;SDS011;38002;53.296;6.600;2023-08-12T01:00:21;4.18;;;2.97;;
51985;SDS011;38002;53.296;6.600;2023-08-12T01:05:21;9.97;;;3.67;;
51985;SDS011;38002;53.296;6.600;2023-08-12T01:10:23;3.75;;;3.00;;
51985;SDS011;38002;53.296;6.600;2023-08-12T01:15:27;6.18;;;2.90;;
51985;SDS011;38002;53.296;6.600;2023-08-12T01:20:29;8.93;;;2.67;;
51985;SDS011;38002;53.296;6.600;2023-08-12T01:25:30;8.27;;;2.90;;
51985;SDS011;38002;53.296;6.600;2023-08-12T01:30:31;3.53;;;2.23;;
51985;SDS011;38002;53.296;6.600;2023-08-12T01:35:35;3.80;;;2.28;;
51985;SDS011;38002;53.296;6.600;2023-08-12T01:40:38;6.53;;;2.42;;
51985;SDS011;38002;53.296;6.600;2023-08-12T01:45:41;6.05;;;2.33;;
51985;SDS011;38002;53.296;6.600;2023-08-12T01:50:41;2.97;;;2.17;;
51985;SDS011;38002;53.296;6.600;2023-08-12T01:55:48;5.32;;;2.20;;
51985;SDS011;38002;53.296;6.600;2023-08-12T02:00:50;7.18;;;3.55;;
51985;SDS011;38002;53.296;6.600;2023-08-12T02:05:50;3.00;;;2.13;;
51985;SDS011;38002;53.296;6.600;2023-08-12T02:10:51;4.47;;;2.20;;
51985;SDS011;38002;53.296;6.600;2023-08-12T02:15:51;2.57;;;2.00;;
51985;SDS011;38002;53.296;6.600;2023-08-12T02:20:52;1.77;;;1.63;;
51985;SDS011;38002;53.296;6.600;2023-08-12T02:25:53;4.23;;;2.83;;
51985;SDS011;38002;53.296;6.600;2023-08-12T02:30:54;4.85;;;2.88;;
51985;SDS011;38002;53.296;6.600;2023-08-12T02:35:55;4.43;;;2.80;;
51985;SDS011;38002;53.296;6.600;2023-08-12T02:40:55;4.33;;;3.13;;
51985;SDS011;38002;53.296;6.600;2023-08-12T02:45:56;2.70;;;2.50;;
51985;SDS011;38002;53.296;6.600;2023-08-12T02:50:56;6.17;;;2.80;;
51985;SDS011;38002;53.296;6.600;2023-08-12T02:55:57;7.80;;;3.50;;
51985;SDS011;38002;53.296;6.600;2023-08-12T03:00:57;3.67;;;3.00;;
51985;SDS011;38002;53.296;6.600;2023-08-12T03:05:58;4.30;;;3.27;;
51985;SDS011;38002;53.296;6.600;2023-08-12T03:11:01;3.47;;;2.73;;
51985;SDS011;38002;53.296;6.600;2023-08-12T03:16:02;6.95;;;3.95;;
51985;SDS011;38002;53.296;6.600;2023-08-12T03:21:07;5.40;;;3.80;;
51985;SDS011;38002;53.296;6.600;2023-08-12T03:26:08;3.30;;;3.08;;
51985;SDS011;38002;53.296;6.600;2023-08-12T03:31:09;5.10;;;3.27;;
51985;SDS011;38002;53.296;6.600;2023-08-12T03:36:09;5.43;;;4.27;;
51985;SDS011;38002;53.296;6.600;2023-08-12T03:41:10;5.93;;;3.53;;
51985;SDS011;38002;53.296;6.600;2023-08-12T03:46:10;7.20;;;4.17;;
51985;SDS011;38002;53.296;6.600;2023-08-12T03:51:11;5.90;;;4.47;;
51985;SDS011;38002;53.296;6.600;2023-08-12T03:56:12;5.13;;;4.23;;
51985;SDS011;38002;53.296;6.600;2023-08-12T04:01:15;8.77;;;4.43;;
51985;SDS011;38002;53.296;6.600;2023-08-12T04:06:15;4.87;;;4.33;;
51985;SDS011;38002;53.296;6.600;2023-08-12T04:11:18;11.47;;;4.50;;
51985;SDS011;38002;53.296;6.600;2023-08-12T04:16:18;6.07;;;4.63;;
51985;SDS011;38002;53.296;6.600;2023-08-12T04:21:19;6.17;;;5.27;;
51985;SDS011;38002;53.296;6.600;2023-08-12T04:26:21;6.13;;;4.85;;
51985;SDS011;38002;53.296;6.600;2023-08-12T04:31:22;11.33;;;5.63;;
51985;SDS011;38002;53.296;6.600;2023-08-12T04:36:22;8.17;;;5.70;;
51985;SDS011;38002;53.296;6.600;2023-08-12T04:41:23;8.77;;;5.77;;
51985;SDS011;38002;53.296;6.600;2023-08-12T04:46:24;6.18;;;4.88;;
51985;SDS011;38002;53.296;6.600;2023-08-12T04:51:24;10.37;;;6.20;;
51985;SDS011;38002;53.296;6.600;2023-08-12T04:56:25;7.73;;;5.10;;
51985;SDS011;38002;53.296;6.600;2023-08-12T05:01:29;7.45;;;5.40;;
51985;SDS011;38002;53.296;6.600;2023-08-12T05:06:29;7.13;;;5.50;;
51985;SDS011;38002;53.296;6.600;2023-08-12T05:11:29;8.60;;;5.47;;
51985;SDS011;38002;53.296;6.600;2023-08-12T05:16:30;5.90;;;4.70;;
51985;SDS011;38002;53.296;6.600;2023-08-12T05:21:31;11.80;;;6.03;;
51985;SDS011;38002;53.296;6.600;2023-08-12T05:26:32;14.10;;;6.87;;
51985;SDS011;38002;53.296;6.600;2023-08-12T05:31:33;9.38;;;6.50;;
51985;SDS011;38002;53.296;6.600;2023-08-12T05:36:35;9.73;;;6.57;;
51985;SDS011;38002;53.296;6.600;2023-08-12T05:41:36;8.13;;;6.10;;
51985;SDS011;38002;53.296;6.600;2023-08-12T05:46:36;7.50;;;6.80;;
51985;SDS011;38002;53.296;6.600;2023-08-12T05:51:37;12.93;;;7.00;;
51985;SDS011;38002;53.296;6.600;2023-08-12T05:56:38;10.38;;;6.38;;
51985;SDS011;38002;53.296;6.600;2023-08-12T06:01:39;11.97;;;7.00;;
51985;SDS011;38002;53.296;6.600;2023-08-12T06:06:39;8.73;;;6.47;;
51985;SDS011;38002;53.296;6.600;2023-08-12T06:11:39;7.43;;;6.17;;
51985;SDS011;38002;53.296;6.600;2023-08-12T06:16:42;11.48;;;6.72;;
51985;SDS011;38002;53.296;6.600;2023-08-12T06:21:45;9.27;;;5.88;;
51985;SDS011;38002;53.296;6.600;2023-08-12T06:26:46;11.77;;;6.73;;
51985;SDS011;38002;53.296;6.600;2023-08-12T06:31:46;9.03;;;5.87;;
51985;SDS011;38002;53.296;6.600;2023-08-12T06:36:47;10.60;;;6.22;;
51985;SDS011;38002;53.296;6.600;2023-08-12T06:41:48;9.40;;;7.07;;
51985;SDS011;38002;53.296;6.600;2023-08-12T06:46:48;8.40;;;6.30;;
51985;SDS011;38002;53.296;6.600;2023-08-12T06:51:49;12.03;;;7.03;;
51985;SDS011;38002;53.296;6.600;2023-08-12T06:56:49;10.57;;;6.43;;
51985;SDS011;38002;53.296;6.600;2023-08-12T07:01:50;10.00;;;6.83;;
51985;SDS011;38002;53.296;6.600;2023-08-12T07:06:51;7.80;;;6.07;;
51985;SDS011;38002;53.296;6.600;2023-08-12T07:11:51;13.53;;;8.17;;
51985;SDS011;38002;53.296;6.600;2023-08-12T07:16:52;9.30;;;7.22;;
51985;SDS011;38002;53.296;6.600;2023-08-12T07:21:53;8.70;;;5.50;;
51985;SDS011;38002;53.296;6.600;2023-08-12T07:26:53;13.73;;;7.57;;
51985;SDS011;38002;53.296;6.600;2023-08-12T07:31:54;10.37;;;7.93;;
51985;SDS011;38002;53.296;6.600;2023-08-12T07:36:54;15.70;;;8.50;;
51985;SDS011;38002;53.296;6.600;2023-08-12T07:41:55;11.73;;;7.63;;
51985;SDS011;38002;53.296;6.600;2023-08-12T07:46:55;12.13;;;8.23;;
51985;SDS011;38002;53.296;6.600;2023-08-12T07:51:55;21.00;;;9.47;;
51985;SDS011;38002;53.296;6.600;2023-08-12T07:56:56;14.50;;;8.53;;
51985;SDS011;38002;53.296;6.600;2023-08-12T08:01:56;12.37;;;9.43;;
51985;SDS011;38002;53.296;6.600;2023-08-12T08:06:57;17.53;;;10.73;;
51985;SDS011;38002;53.296;6.600;2023-08-12T08:11:58;12.25;;;8.57;;
51985;SDS011;38002;53.296;6.600;2023-08-12T08:16:58;17.60;;;9.90;;
51985;SDS011;38002;53.296;6.600;2023-08-12T08:21:59;11.30;;;8.57;;
51985;SDS011;38002;53.296;6.600;2023-08-12T08:27:00;15.35;;;9.00;;
51985;SDS011;38002;53.296;6.600;2023-08-12T08:32:01;12.33;;;9.77;;
51985;SDS011;38002;53.296;6.600;2023-08-12T08:37:01;12.43;;;8.67;;
51985;SDS011;38002;53.296;6.600;2023-08-12T08:42:03;13.30;;;9.57;;
51985;SDS011;38002;53.296;6.600;2023-08-12T08:47:06;13.05;;;9.80;;
51985;SDS011;38002;53.296;6.600;2023-08-12T08:52:07;12.50;;;8.65;;
51985;SDS011;38002;53.296;6.600;2023-08-12T08:57:08;13.45;;;9.15;;
51985;SDS011;38002;53.296;6.600;2023-08-12T09:02:18;16.60;;;10.40;;
51985;SDS011;38002;53.296;6.600;2023-08-12T09:07:19;15.38;;;11.55;;
51985;SDS011;38002;53.296;6.600;2023-08-12T09:12:21;13.50;;;10.48;;
51985;SDS011;38002;53.296;6.600;2023-08-12T09:17:21;14.37;;;9.50;;
51985;SDS011;38002;53.296;6.600;2023-08-12T09:22:24;13.27;;;10.47;;
51985;SDS011;38002;53.296;6.600;2023-08-12T09:27:25;14.80;;;10.85;;
51985;SDS011;38002;53.296;6.600;2023-08-12T09:32:26;16.97;;;12.00;;
51985;SDS011;38002;53.296;6.600;2023-08-12T09:37:26;14.50;;;10.87;;
51985;SDS011;38002;53.296;6.600;2023-08-12T09:42:28;19.17;;;12.77;;
51985;SDS011;38002;53.296;6.600;2023-08-12T09:47:28;19.43;;;12.60;;
51985;SDS011;38002;53.296;6.600;2023-08-12T09:52:29;14.30;;;9.60;;
51985;SDS011;38002;53.296;6.600;2023-08-12T09:57:30;25.30;;;13.98;;
51985;SDS011;38002;53.296;6.600;2023-08-12T10:02:35;18.85;;;12.77;;
51985;SDS011;38002;53.296;6.600;2023-08-12T10:07:36;22.20;;;15.30;;
51985;SDS011;38002;53.296;6.600;2023-08-12T10:12:36;22.25;;;16.13;;
51985;SDS011;38002;53.296;6.600;2023-08-12T10:17:38;21.77;;;15.53;;
51985;SDS011;38002;53.296;6.600;2023-08-12T10:22:40;17.10;;;12.32;;
51985;SDS011;38002;53.296;6.600;2023-08-12T10:27:43;19.42;;;15.25;;
51985;SDS011;38002;53.296;6.600;2023-08-12T10:32:44;21.77;;;12.90;;
51985;SDS011;38002;53.296;6.600;2023-08-12T10:37:49;15.38;;;12.38;;
51985;SDS011;38002;53.296;6.600;2023-08-12T10:42:51;19.60;;;15.10;;
51985;SDS011;38002;53.296;6.600;2023-08-12T10:47:53;17.95;;;15.30;;
51985;SDS011;38002;53.296;6.600;2023-08-12T10:53:20;18.85;;;13.30;;
51985;SDS011;38002;53.296;6.600;2023-08-12T10:58:35;17.75;;;14.50;;
51985;SDS011;38002;53.296;6.600;2023-08-12T11:03:42;15.23;;;12.10;;
51985;SDS011;38002;53.296;6.600;2023-08-12T11:08:47;8.68;;;7.25;;
51985;SDS011;38002;53.296;6.600;2023-08-12T11:13:58;5.95;;;5.38;;
51985;SDS011;38002;53.296;6.600;2023-08-12T11:18:59;5.18;;;4.65;;
51985;SDS011;38002;53.296;6.600;2023-08-12T11:23:59;4.23;;;3.83;;
51985;SDS011;38002;53.296;6.600;2023-08-12T11:29:07;4.85;;;2.30;;
51985;SDS011;38002;53.296;6.600;2023-08-12T11:34:09;3.90;;;2.65;;
51985;SDS011;38002;53.296;6.600;2023-08-12T11:39:10;2.90;;;2.67;;
51985;SDS011;38002;53.296;6.600;2023-08-12T11:44:20;3.53;;;2.70;;
51985;SDS011;38002;53.296;6.600;2023-08-12T11:49:22;2.75;;;2.55;;
51985;SDS011;38002;53.296;6.600;2023-08-12T11:54:33;3.75;;;2.40;;
51985;SDS011;38002;53.296;6.600;2023-08-12T11:59:35;3.93;;;2.80;;
51985;SDS011;38002;53.296;6.600;2023-08-12T12:04:35;4.10;;;2.60;;
51985;SDS011;38002;53.296;6.600;2023-08-12T12:09:36;4.70;;;2.50;;
51985;SDS011;38002;53.296;6.600;2023-08-12T12:14:36;6.20;;;2.30;;
51985;SDS011;38002;53.296;6.600;2023-08-12T12:19:39;2.97;;;2.03;;
51985;SDS011;38002;53.296;6.600;2023-08-12T12:24:44;4.57;;;2.38;;
51985;SDS011;38002;53.296;6.600;2023-08-12T12:29:48;5.68;;;2.42;;
51985;SDS011;38002;53.296;6.600;2023-08-12T12:34:49;6.20;;;2.93;;
51985;SDS011;38002;53.296;6.600;2023-08-12T12:39:49;7.93;;;2.33;;
51985;SDS011;38002;53.296;6.600;2023-08-12T12:44:50;4.53;;;2.07;;
51985;SDS011;38002;53.296;6.600;2023-08-12T12:49:51;3.95;;;1.80;;
51985;SDS011;38002;53.296;6.600;2023-08-12T12:54:52;3.23;;;1.70;;
51985;SDS011;38002;53.296;6.600;2023-08-12T12:59:53;6.00;;;1.52;;
51985;SDS011;38002;53.296;6.600;2023-08-12T13:04:53;6.10;;;2.00;;
51985;SDS011;38002;53.296;6.600;2023-08-12T13:09:54;5.10;;;1.87;;
51985;SDS011;38002;53.296;6.600;2023-08-12T13:14:54;7.10;;;2.03;;
51985;SDS011;38002;53.296;6.600;2023-08-12T13:19:55;6.07;;;2.40;;
51985;SDS011;38002;53.296;6.600;2023-08-12T13:24:55;7.43;;;2.00;;
51985;SDS011;38002;53.296;6.600;2023-08-12T13:29:56;3.17;;;1.93;;
51985;SDS011;38002;53.296;6.600;2023-08-12T13:34:56;6.27;;;2.50;;
51985;SDS011;38002;53.296;6.600;2023-08-12T13:39:56;7.03;;;2.20;;
51985;SDS011;38002;53.296;6.600;2023-08-12T13:44:57;5.77;;;2.27;;
51985;SDS011;38002;53.296;6.600;2023-08-12T13:49:57;4.53;;;2.47;;
51985;SDS011;38002;53.296;6.600;2023-08-12T13:54:58;8.45;;;2.90;;
51985;SDS011;38002;53.296;6.600;2023-08-12T13:59:59;9.40;;;3.53;;
51985;SDS011;38002;53.296;6.600;2023-08-12T14:05:00;9.30;;;3.00;;
51985;SDS011;38002;53.296;6.600;2023-08-12T14:10:00;8.67;;;3.10;;
51985;SDS011;38002;53.296;6.600;2023-08-12T14:15:01;5.93;;;2.40;;
51985;SDS011;38002;53.296;6.600;2023-08-12T14:20:02;6.30;;;2.03;;
51985;SDS011;38002;53.296;6.600;2023-08-12T14:25:07;8.38;;;1.55;;
51985;SDS011;38002;53.296;6.600;2023-08-12T14:30:08;5.25;;;1.30;;
51985;SDS011;38002;53.296;6.600;2023-08-12T14:35:09;6.97;;;1.73;;
51985;SDS011;38002;53.296;6.600;2023-08-12T14:40:10;5.77;;;1.33;;
51985;SDS011;38002;53.296;6.600;2023-08-12T14:45:11;7.32;;;1.77;;
51985;SDS011;38002;53.296;6.600;2023-08-12T14:50:11;4.77;;;1.73;;
51985;SDS011;38002;53.296;6.600;2023-08-12T14:55:12;2.63;;;1.13;;
51985;SDS011;38002;53.296;6.600;2023-08-12T15:00:12;7.03;;;1.67;;
51985;SDS011;38002;53.296;6.600;2023-08-12T15:05:14;7.97;;;1.70;;
51985;SDS011;38002;53.296;6.600;2023-08-12T15:10:15;6.00;;;1.90;;
51985;SDS011;38002;53.296;6.600;2023-08-12T15:15:15;7.07;;;1.90;;
51985;SDS011;38002;53.296;6.600;2023-08-12T15:20:16;5.13;;;1.77;;
51985;SDS011;38002;53.296;6.600;2023-08-12T15:30:17;9.32;;;1.55;;
51985;SDS011;38002;53.296;6.600;2023-08-12T15:35:18;9.13;;;2.03;;
51985;SDS011;38002;53.296;6.600;2023-08-12T15:40:18;7.73;;;2.03;;
51985;SDS011;38002;53.296;6.600;2023-08-12T15:45:20;6.18;;;2.08;;
51985;SDS011;38002;53.296;6.600;2023-08-12T15:50:20;9.37;;;1.80;;
51985;SDS011;38002;53.296;6.600;2023-08-12T15:55:21;5.15;;;1.45;;
51985;SDS011;38002;53.296;6.600;2023-08-12T16:00:21;5.53;;;1.80;;
51985;SDS011;38002;53.296;6.600;2023-08-12T16:10:23;7.80;;;1.70;;
51985;SDS011;38002;53.296;6.600;2023-08-12T16:15:24;5.00;;;1.80;;
51985;SDS011;38002;53.296;6.600;2023-08-12T16:20:24;7.30;;;1.73;;
51985;SDS011;38002;53.296;6.600;2023-08-12T16:25:25;10.27;;;1.90;;
51985;SDS011;38002;53.296;6.600;2023-08-12T16:30:25;3.72;;;1.40;;
51985;SDS011;38002;53.296;6.600;2023-08-12T16:35:26;10.53;;;2.10;;
51985;SDS011;38002;53.296;6.600;2023-08-12T16:40:26;8.10;;;2.00;;
51985;SDS011;38002;53.296;6.600;2023-08-12T16:45:30;9.68;;;2.30;;
51985;SDS011;38002;53.296;6.600;2023-08-12T16:50:30;6.97;;;2.10;;
51985;SDS011;38002;53.296;6.600;2023-08-12T16:55:31;8.40;;;1.73;;
51985;SDS011;38002;53.296;6.600;2023-08-12T17:00:33;7.18;;;2.03;;
51985;SDS011;38002;53.296;6.600;2023-08-12T17:05:33;7.97;;;1.97;;
51985;SDS011;38002;53.296;6.600;2023-08-12T17:10:37;8.97;;;2.23;;
51985;SDS011;38002;53.296;6.600;2023-08-12T17:15:38;6.05;;;1.58;;
51985;SDS011;38002;53.296;6.600;2023-08-12T17:20:39;6.07;;;1.77;;
51985;SDS011;38002;53.296;6.600;2023-08-12T17:25:39;7.70;;;1.90;;
51985;SDS011;38002;53.296;6.600;2023-08-12T17:30:40;8.03;;;2.53;;
51985;SDS011;38002;53.296;6.600;2023-08-12T17:35:40;12.77;;;3.10;;
51985;SDS011;38002;53.296;6.600;2023-08-12T17:40:40;8.63;;;1.97;;
51985;SDS011;38002;53.296;6.600;2023-08-12T17:45:41;11.73;;;2.00;;
51985;SDS011;38002;53.296;6.600;2023-08-12T17:50:41;6.40;;;1.83;;
51985;SDS011;38002;53.296;6.600;2023-08-12T17:55:42;7.17;;;2.43;;
51985;SDS011;38002;53.296;6.600;2023-08-12T18:00:42;5.80;;;1.90;;
51985;SDS011;38002;53.296;6.600;2023-08-12T18:05:43;3.40;;;1.53;;
51985;SDS011;38002;53.296;6.600;2023-08-12T18:10:44;8.50;;;2.13;;
51985;SDS011;38002;53.296;6.600;2023-08-12T18:15:45;7.50;;;1.67;;
51985;SDS011;38002;53.296;6.600;2023-08-12T18:20:45;7.93;;;1.90;;
51985;SDS011;38002;53.296;6.600;2023-08-12T18:25:45;5.03;;;1.73;;
51985;SDS011;38002;53.296;6.600;2023-08-12T18:30:46;4.30;;;2.00;;
51985;SDS011;38002;53.296;6.600;2023-08-12T18:35:46;7.33;;;1.67;;
51985;SDS011;38002;53.296;6.600;2023-08-12T18:40:47;2.87;;;1.47;;
51985;SDS011;38002;53.296;6.600;2023-08-12T18:45:47;6.65;;;2.20;;
51985;SDS011;38002;53.296;6.600;2023-08-12T18:50:48;6.90;;;1.70;;
51985;SDS011;38002;53.296;6.600;2023-08-12T18:55:48;7.10;;;1.97;;
51985;SDS011;38002;53.296;6.600;2023-08-12T19:00:49;3.83;;;1.70;;
51985;SDS011;38002;53.296;6.600;2023-08-12T19:05:55;6.27;;;2.20;;
51985;SDS011;38002;53.296;6.600;2023-08-12T19:10:59;7.80;;;2.13;;
51985;SDS011;38002;53.296;6.600;2023-08-12T19:16:00;8.07;;;2.00;;
51985;SDS011;38002;53.296;6.600;2023-08-12T19:21:00;7.60;;;2.10;;
51985;SDS011;38002;53.296;6.600;2023-08-12T19:26:01;9.20;;;1.83;;
51985;SDS011;38002;53.296;6.600;2023-08-12T19:31:01;10.07;;;3.10;;
51985;SDS011;38002;53.296;6.600;2023-08-12T19:36:02;8.10;;;1.97;;
51985;SDS011;38002;53.296;6.600;2023-08-12T19:41:02;3.50;;;1.43;;
51985;SDS011;38002;53.296;6.600;2023-08-12T19:46:03;9.05;;;2.20;;
51985;SDS011;38002;53.296;6.600;2023-08-12T19:51:04;5.53;;;1.73;;
51985;SDS011;38002;53.296;6.600;2023-08-12T19:56:05;4.25;;;1.65;;
51985;SDS011;38002;53.296;6.600;2023-08-12T20:01:05;10.30;;;2.80;;
51985;SDS011;38002;53.296;6.600;2023-08-12T20:06:09;8.05;;;2.50;;
51985;SDS011;38002;53.296;6.600;2023-08-12T20:11:10;8.95;;;2.65;;
51985;SDS011;38002;53.296;6.600;2023-08-12T20:16:10;4.93;;;1.80;;
51985;SDS011;38002;53.296;6.600;2023-08-12T20:21:11;8.27;;;2.10;;
51985;SDS011;38002;53.296;6.600;2023-08-12T20:26:11;7.60;;;2.53;;
51985;SDS011;38002;53.296;6.600;2023-08-12T20:31:12;8.50;;;2.63;;
51985;SDS011;38002;53.296;6.600;2023-08-12T20:36:12;7.37;;;3.43;;
51985;SDS011;38002;53.296;6.600;2023-08-12T20:41:15;8.20;;;2.37;;
51985;SDS011;38002;53.296;6.600;2023-08-12T20:46:16;8.30;;;2.10;;
51985;SDS011;38002;53.296;6.600;2023-08-12T20:51:16;10.57;;;2.90;;
51985;SDS011;38002;53.296;6.600;2023-08-12T20:56:17;5.27;;;2.70;;
51985;SDS011;38002;53.296;6.600;2023-08-12T21:01:17;12.30;;;3.10;;
51985;SDS011;38002;53.296;6.600;2023-08-12T21:06:18;8.20;;;2.30;;
51985;SDS011;38002;53.296;6.600;2023-08-12T21:11:18;8.83;;;2.90;;
51985;SDS011;38002;53.296;6.600;2023-08-12T21:16:19;6.43;;;2.43;;
51985;SDS011;38002;53.296;6.600;2023-08-12T21:21:19;10.80;;;2.57;;
51985;SDS011;38002;53.296;6.600;2023-08-12T21:26:20;11.10;;;3.33;;
51985;SDS011;38002;53.296;6.600;2023-08-12T21:31:20;10.60;;;2.40;;
51985;SDS011;38002;53.296;6.600;2023-08-12T21:36:21;16.33;;;2.43;;
51985;SDS011;38002;53.296;6.600;2023-08-12T21:41:21;6.70;;;2.27;;
51985;SDS011;38002;53.296;6.600;2023-08-12T21:46:22;9.97;;;2.77;;
51985;SDS011;38002;53.296;6.600;2023-08-12T21:51:22;6.53;;;2.33;;
51985;SDS011;38002;53.296;6.600;2023-08-12T21:56:23;8.70;;;2.57;;
51985;SDS011;38002;53.296;6.600;2023-08-12T22:01:23;13.13;;;2.90;;
51985;SDS011;38002;53.296;6.600;2023-08-12T22:06:24;7.87;;;2.23;;
51985;SDS011;38002;53.296;6.600;2023-08-12T22:11:24;8.00;;;1.87;;
51985;SDS011;38002;53.296;6.600;2023-08-12T22:16:27;9.98;;;3.45;;
51985;SDS011;38002;53.296;6.600;2023-08-12T22:21:28;9.40;;;2.37;;
51985;SDS011;38002;53.296;6.600;2023-08-12T22:26:28;9.40;;;2.70;;
51985;SDS011;38002;53.296;6.600;2023-08-12T22:31:28;11.13;;;2.60;;
51985;SDS011;38002;53.296;6.600;2023-08-12T22:36:29;17.93;;;2.30;;
51985;SDS011;38002;53.296;6.600;2023-08-12T22:41:33;6.20;;;2.20;;
51985;SDS011;38002;53.296;6.600;2023-08-12T22:46:33;10.23;;;2.28;;
51985;SDS011;38002;53.296;6.600;2023-08-12T22:51:34;9.43;;;1.87;;
51985;SDS011;38002;53.296;6.600;2023-08-12T22:56:35;8.85;;;2.50;;
51985;SDS011;38002;53.296;6.600;2023-08-12T23:06:37;9.43;;;2.20;;
51985;SDS011;38002;53.296;6.600;2023-08-12T23:11:38;8.23;;;2.10;;
51985;SDS011;38002;53.296;6.600;2023-08-12T23:16:38;13.23;;;2.07;;
51985;SDS011;38002;53.296;6.600;2023-08-12T23:21:39;9.90;;;2.63;;
51985;SDS011;38002;53.296;6.600;2023-08-12T23:26:39;11.37;;;2.17;;
51985;SDS011;38002;53.296;6.600;2023-08-12T23:31:40;11.23;;;2.50;;
51985;SDS011;38002;53.296;6.600;2023-08-12T23:36:40;10.17;;;2.20;;
51985;SDS011;38002;53.296;6.600;2023-08-12T23:41:41;9.47;;;2.90;;
51985;SDS011;38002;53.296;6.600;2023-08-12T23:46:41;8.17;;;2.50;;
51985;SDS011;38002;53.296;6.600;2023-08-12T23:51:44;5.32;;;2.03;;
51985;SDS011;38002;53.296;6.600;2023-08-12T23:56:45;9.13;;;3.43;;
